sensor_id;sensor_type;location;lat;lon;timestamp;P1;durP1;ratioP1;P2;durP2;ratioP2
72053;SDS011;59918;51.280;7.950;2023-05-19T00:01:29;6.55;;;3.83;;
72053;SDS011;59918;51.280;7.950;2023-05-19T00:03:55;6.22;;;3.33;;
72053;SDS011;59918;51.280;7.950;2023-05-19T00:06:31;5.75;;;3.25;;
72053;SDS011;59918;51.280;7.950;2023-05-19T00:09:01;7.68;;;3.22;;
72053;SDS011;59918;51.280;7.950;2023-05-19T00:11:31;4.75;;;3.33;;
72053;SDS011;59918;51.280;7.950;2023-05-19T00:14:00;5.95;;;3.22;;
72053;SDS011;59918;51.280;7.950;2023-05-19T00:16:27;6.80;;;3.38;;
72053;SDS011;59918;51.280;7.950;2023-05-19T00:18:53;5.57;;;3.22;;
72053;SDS011;59918;51.280;7.950;2023-05-19T00:21:19;5.03;;;3.15;;
72053;SDS011;59918;51.280;7.950;2023-05-19T00:23:44;6.35;;;2.88;;
72053;SDS011;59918;51.280;7.950;2023-05-19T00:26:15;9.00;;;3.13;;
72053;SDS011;59918;51.280;7.950;2023-05-19T00:28:41;7.82;;;3.33;;
72053;SDS011;59918;51.280;7.950;2023-05-19T00:31:06;6.72;;;2.90;;
72053;SDS011;59918;51.280;7.950;2023-05-19T00:33:31;6.80;;;2.88;;
72053;SDS011;59918;51.280;7.950;2023-05-19T00:36:01;8.95;;;3.10;;
72053;SDS011;59918;51.280;7.950;2023-05-19T00:38:26;4.63;;;3.03;;
72053;SDS011;59918;51.280;7.950;2023-05-19T00:40:52;5.50;;;2.97;;
72053;SDS011;59918;51.280;7.950;2023-05-19T00:43:17;5.40;;;2.78;;
72053;SDS011;59918;51.280;7.950;2023-05-19T00:45:42;6.35;;;2.90;;
72053;SDS011;59918;51.280;7.950;2023-05-19T00:48:08;9.02;;;3.00;;
72053;SDS011;59918;51.280;7.950;2023-05-19T00:50:36;7.50;;;2.55;;
72053;SDS011;59918;51.280;7.950;2023-05-19T00:53:02;7.45;;;2.95;;
72053;SDS011;59918;51.280;7.950;2023-05-19T00:55:28;9.93;;;3.13;;
72053;SDS011;59918;51.280;7.950;2023-05-19T00:57:56;7.13;;;3.10;;
72053;SDS011;59918;51.280;7.950;2023-05-19T01:00:28;8.50;;;2.67;;
72053;SDS011;59918;51.280;7.950;2023-05-19T01:03:06;3.35;;;3.05;;
72053;SDS011;59918;51.280;7.950;2023-05-19T01:05:41;4.25;;;2.92;;
72053;SDS011;59918;51.280;7.950;2023-05-19T01:08:07;8.70;;;3.88;;
72053;SDS011;59918;51.280;7.950;2023-05-19T01:10:32;3.15;;;2.70;;
72053;SDS011;59918;51.280;7.950;2023-05-19T01:13:01;3.60;;;2.80;;
72053;SDS011;59918;51.280;7.950;2023-05-19T01:15:28;4.70;;;2.50;;
72053;SDS011;59918;51.280;7.950;2023-05-19T01:18:10;8.40;;;3.13;;
72053;SDS011;59918;51.280;7.950;2023-05-19T01:20:44;6.53;;;3.08;;
72053;SDS011;59918;51.280;7.950;2023-05-19T01:23:33;6.60;;;2.92;;
72053;SDS011;59918;51.280;7.950;2023-05-19T01:31:57;6.88;;;2.90;;
72053;SDS011;59918;51.280;7.950;2023-05-19T01:34:28;7.28;;;3.28;;
72053;SDS011;59918;51.280;7.950;2023-05-19T01:36:55;6.90;;;2.92;;
72053;SDS011;59918;51.280;7.950;2023-05-19T01:39:22;4.95;;;3.58;;
72053;SDS011;59918;51.280;7.950;2023-05-19T01:41:53;5.82;;;2.90;;
72053;SDS011;59918;51.280;7.950;2023-05-19T01:44:18;4.80;;;2.80;;
72053;SDS011;59918;51.280;7.950;2023-05-19T01:46:44;4.57;;;2.78;;
72053;SDS011;59918;51.280;7.950;2023-05-19T01:49:09;5.13;;;4.07;;
72053;SDS011;59918;51.280;7.950;2023-05-19T01:51:38;10.90;;;3.10;;
72053;SDS011;59918;51.280;7.950;2023-05-19T01:54:04;6.90;;;2.60;;
72053;SDS011;59918;51.280;7.950;2023-05-19T01:57:18;6.72;;;3.85;;
72053;SDS011;59918;51.280;7.950;2023-05-19T02:02:33;6.68;;;2.60;;
72053;SDS011;59918;51.280;7.950;2023-05-19T02:05:08;8.52;;;2.97;;
72053;SDS011;59918;51.280;7.950;2023-05-19T02:07:51;6.28;;;3.45;;
72053;SDS011;59918;51.280;7.950;2023-05-19T02:10:40;7.03;;;3.13;;
72053;SDS011;59918;51.280;7.950;2023-05-19T02:13:09;7.13;;;3.05;;
72053;SDS011;59918;51.280;7.950;2023-05-19T02:15:38;7.95;;;3.08;;
72053;SDS011;59918;51.280;7.950;2023-05-19T02:18:05;7.47;;;3.08;;
72053;SDS011;59918;51.280;7.950;2023-05-19T02:20:33;9.40;;;3.28;;
72053;SDS011;59918;51.280;7.950;2023-05-19T02:23:04;7.07;;;3.42;;
72053;SDS011;59918;51.280;7.950;2023-05-19T02:25:30;5.90;;;3.03;;
72053;SDS011;59918;51.280;7.950;2023-05-19T02:27:56;6.47;;;2.90;;
72053;SDS011;59918;51.280;7.950;2023-05-19T02:30:25;6.45;;;3.63;;
72053;SDS011;59918;51.280;7.950;2023-05-19T02:32:50;5.47;;;3.33;;
72053;SDS011;59918;51.280;7.950;2023-05-19T02:35:15;5.07;;;3.10;;
72053;SDS011;59918;51.280;7.950;2023-05-19T02:37:41;5.55;;;2.97;;
72053;SDS011;59918;51.280;7.950;2023-05-19T02:40:06;4.78;;;2.50;;
72053;SDS011;59918;51.280;7.950;2023-05-19T02:42:32;7.13;;;3.35;;
72053;SDS011;59918;51.280;7.950;2023-05-19T02:45:03;5.78;;;2.65;;
72053;SDS011;59918;51.280;7.950;2023-05-19T02:47:29;9.85;;;3.17;;
72053;SDS011;59918;51.280;7.950;2023-05-19T02:49:54;7.40;;;3.90;;
72053;SDS011;59918;51.280;7.950;2023-05-19T02:52:19;4.28;;;3.20;;
72053;SDS011;59918;51.280;7.950;2023-05-19T02:54:45;5.15;;;2.70;;
72053;SDS011;59918;51.280;7.950;2023-05-19T02:57:13;7.90;;;3.40;;
72053;SDS011;59918;51.280;7.950;2023-05-19T02:59:38;13.18;;;3.67;;
72053;SDS011;59918;51.280;7.950;2023-05-19T03:02:03;6.50;;;3.85;;
72053;SDS011;59918;51.280;7.950;2023-05-19T03:04:28;3.22;;;2.90;;
72053;SDS011;59918;51.280;7.950;2023-05-19T03:06:54;4.07;;;3.20;;
72053;SDS011;59918;51.280;7.950;2023-05-19T03:09:19;17.77;;;3.88;;
72053;SDS011;59918;51.280;7.950;2023-05-19T03:11:45;11.00;;;3.92;;
72053;SDS011;59918;51.280;7.950;2023-05-19T03:14:13;6.22;;;3.60;;
72053;SDS011;59918;51.280;7.950;2023-05-19T03:16:39;9.85;;;4.43;;
72053;SDS011;59918;51.280;7.950;2023-05-19T03:19:04;6.43;;;3.30;;
72053;SDS011;59918;51.280;7.950;2023-05-19T03:21:29;5.07;;;2.67;;
72053;SDS011;59918;51.280;7.950;2023-05-19T03:23:55;5.95;;;3.05;;
72053;SDS011;59918;51.280;7.950;2023-05-19T03:26:20;8.40;;;2.95;;
72053;SDS011;59918;51.280;7.950;2023-05-19T03:28:45;5.38;;;3.33;;
72053;SDS011;59918;51.280;7.950;2023-05-19T03:31:16;4.20;;;3.20;;
72053;SDS011;59918;51.280;7.950;2023-05-19T03:33:42;4.90;;;3.03;;
72053;SDS011;59918;51.280;7.950;2023-05-19T03:36:07;3.78;;;2.75;;
72053;SDS011;59918;51.280;7.950;2023-05-19T03:38:32;5.13;;;2.88;;
72053;SDS011;59918;51.280;7.950;2023-05-19T03:41:03;9.07;;;3.08;;
72053;SDS011;59918;51.280;7.950;2023-05-19T03:43:29;6.47;;;3.35;;
72053;SDS011;59918;51.280;7.950;2023-05-19T03:45:54;7.90;;;3.03;;
72053;SDS011;59918;51.280;7.950;2023-05-19T03:48:20;3.67;;;3.22;;
72053;SDS011;59918;51.280;7.950;2023-05-19T03:50:45;8.05;;;3.30;;
72053;SDS011;59918;51.280;7.950;2023-05-19T03:53:13;4.47;;;2.92;;
72053;SDS011;59918;51.280;7.950;2023-05-19T03:55:39;4.55;;;2.95;;
72053;SDS011;59918;51.280;7.950;2023-05-19T03:58:04;7.05;;;3.55;;
72053;SDS011;59918;51.280;7.950;2023-05-19T04:00:29;6.53;;;2.95;;
72053;SDS011;59918;51.280;7.950;2023-05-19T04:02:54;5.95;;;3.15;;
72053;SDS011;59918;51.280;7.950;2023-05-19T04:05:20;6.82;;;3.42;;
72053;SDS011;59918;51.280;7.950;2023-05-19T04:07:45;7.20;;;3.10;;
72053;SDS011;59918;51.280;7.950;2023-05-19T04:10:14;5.60;;;3.13;;
72053;SDS011;59918;51.280;7.950;2023-05-19T04:12:40;3.95;;;2.70;;
72053;SDS011;59918;51.280;7.950;2023-05-19T04:15:05;4.07;;;3.00;;
72053;SDS011;59918;51.280;7.950;2023-05-19T04:17:31;8.00;;;2.97;;
72053;SDS011;59918;51.280;7.950;2023-05-19T04:19:56;5.15;;;3.17;;
72053;SDS011;59918;51.280;7.950;2023-05-19T04:22:22;4.55;;;3.22;;
72053;SDS011;59918;51.280;7.950;2023-05-19T04:24:50;5.13;;;3.30;;
72053;SDS011;59918;51.280;7.950;2023-05-19T04:27:15;9.60;;;4.40;;
72053;SDS011;59918;51.280;7.950;2023-05-19T04:29:40;9.65;;;3.15;;
72053;SDS011;59918;51.280;7.950;2023-05-19T04:32:06;5.15;;;3.35;;
72053;SDS011;59918;51.280;7.950;2023-05-19T04:34:32;5.65;;;3.17;;
72053;SDS011;59918;51.280;7.950;2023-05-19T04:36:57;4.80;;;3.17;;
72053;SDS011;59918;51.280;7.950;2023-05-19T04:39:26;4.53;;;3.60;;
72053;SDS011;59918;51.280;7.950;2023-05-19T04:41:51;2.95;;;2.75;;
72053;SDS011;59918;51.280;7.950;2023-05-19T04:44:16;7.22;;;3.28;;
72053;SDS011;59918;51.280;7.950;2023-05-19T04:46:42;3.55;;;2.53;;
72053;SDS011;59918;51.280;7.950;2023-05-19T04:49:07;6.68;;;3.42;;
72053;SDS011;59918;51.280;7.950;2023-05-19T04:51:40;8.88;;;3.20;;
72053;SDS011;59918;51.280;7.950;2023-05-19T04:54:08;4.43;;;3.20;;
72053;SDS011;59918;51.280;7.950;2023-05-19T04:56:34;5.60;;;3.20;;
72053;SDS011;59918;51.280;7.950;2023-05-19T04:59:03;6.07;;;3.22;;
72053;SDS011;59918;51.280;7.950;2023-05-19T05:01:28;6.18;;;3.25;;
72053;SDS011;59918;51.280;7.950;2023-05-19T05:03:53;8.55;;;3.42;;
72053;SDS011;59918;51.280;7.950;2023-05-19T05:06:19;5.57;;;3.38;;
72053;SDS011;59918;51.280;7.950;2023-05-19T05:08:45;14.85;;;3.30;;
72053;SDS011;59918;51.280;7.950;2023-05-19T05:11:10;8.05;;;3.50;;
72053;SDS011;59918;51.280;7.950;2023-05-19T05:13:39;11.10;;;3.42;;
72053;SDS011;59918;51.280;7.950;2023-05-19T05:16:04;5.85;;;3.90;;
72053;SDS011;59918;51.280;7.950;2023-05-19T05:18:31;4.82;;;3.45;;
72053;SDS011;59918;51.280;7.950;2023-05-19T05:20:57;10.38;;;3.45;;
72053;SDS011;59918;51.280;7.950;2023-05-19T05:23:22;5.43;;;3.63;;
72053;SDS011;59918;51.280;7.950;2023-05-19T05:25:51;9.50;;;3.72;;
72053;SDS011;59918;51.280;7.950;2023-05-19T05:28:17;11.10;;;3.78;;
72053;SDS011;59918;51.280;7.950;2023-05-19T05:30:42;6.95;;;3.85;;
72053;SDS011;59918;51.280;7.950;2023-05-19T05:33:07;11.73;;;4.05;;
72053;SDS011;59918;51.280;7.950;2023-05-19T05:35:33;6.90;;;3.92;;
72053;SDS011;59918;51.280;7.950;2023-05-19T05:37:58;8.50;;;3.70;;
72053;SDS011;59918;51.280;7.950;2023-05-19T05:40:23;6.47;;;4.13;;
72053;SDS011;59918;51.280;7.950;2023-05-19T05:42:55;10.07;;;3.97;;
72053;SDS011;59918;51.280;7.950;2023-05-19T05:45:21;8.60;;;4.00;;
72053;SDS011;59918;51.280;7.950;2023-05-19T05:47:46;13.95;;;4.05;;
72053;SDS011;59918;51.280;7.950;2023-05-19T05:50:19;7.25;;;3.97;;
72053;SDS011;59918;51.280;7.950;2023-05-19T05:52:45;5.15;;;3.70;;
72053;SDS011;59918;51.280;7.950;2023-05-19T05:55:11;7.03;;;3.40;;
72053;SDS011;59918;51.280;7.950;2023-05-19T05:57:40;9.35;;;4.03;;
72053;SDS011;59918;51.280;7.950;2023-05-19T06:00:06;5.45;;;3.55;;
72053;SDS011;59918;51.280;7.950;2023-05-19T06:02:32;9.65;;;3.63;;
72053;SDS011;59918;51.280;7.950;2023-05-19T06:04:57;4.72;;;3.88;;
72053;SDS011;59918;51.280;7.950;2023-05-19T06:07:22;5.45;;;3.65;;
72053;SDS011;59918;51.280;7.950;2023-05-19T06:09:48;10.77;;;3.55;;
72053;SDS011;59918;51.280;7.950;2023-05-19T06:12:16;6.20;;;3.20;;
72053;SDS011;59918;51.280;7.950;2023-05-19T06:14:41;5.03;;;3.45;;
72053;SDS011;59918;51.280;7.950;2023-05-19T06:17:06;5.72;;;4.30;;
72053;SDS011;59918;51.280;7.950;2023-05-19T06:19:31;8.25;;;4.18;;
72053;SDS011;59918;51.280;7.950;2023-05-19T06:21:57;4.70;;;3.42;;
72053;SDS011;59918;51.280;7.950;2023-05-19T06:24:22;8.65;;;4.30;;
72053;SDS011;59918;51.280;7.950;2023-05-19T06:26:47;6.30;;;3.40;;
72053;SDS011;59918;51.280;7.950;2023-05-19T06:29:18;6.83;;;3.40;;
72053;SDS011;59918;51.280;7.950;2023-05-19T06:31:44;8.77;;;3.97;;
72053;SDS011;59918;51.280;7.950;2023-05-19T06:34:09;11.23;;;3.67;;
72053;SDS011;59918;51.280;7.950;2023-05-19T06:36:34;7.30;;;3.63;;
72053;SDS011;59918;51.280;7.950;2023-05-19T06:38:59;11.57;;;3.92;;
72053;SDS011;59918;51.280;7.950;2023-05-19T06:41:28;6.15;;;3.13;;
72053;SDS011;59918;51.280;7.950;2023-05-19T06:43:53;6.63;;;2.70;;
72053;SDS011;59918;51.280;7.950;2023-05-19T06:46:18;10.05;;;2.53;;
72053;SDS011;59918;51.280;7.950;2023-05-19T06:48:43;6.03;;;2.38;;
72053;SDS011;59918;51.280;7.950;2023-05-19T06:51:09;8.90;;;2.40;;
72053;SDS011;59918;51.280;7.950;2023-05-19T06:53:41;8.98;;;2.35;;
72053;SDS011;59918;51.280;7.950;2023-05-19T06:56:06;5.22;;;2.30;;
72053;SDS011;59918;51.280;7.950;2023-05-19T06:58:32;5.10;;;2.30;;
72053;SDS011;59918;51.280;7.950;2023-05-19T07:00:57;7.90;;;2.67;;
72053;SDS011;59918;51.280;7.950;2023-05-19T07:03:22;8.43;;;2.30;;
72053;SDS011;59918;51.280;7.950;2023-05-19T07:05:56;6.38;;;1.92;;
72053;SDS011;59918;51.280;7.950;2023-05-19T07:08:22;4.75;;;1.90;;
72053;SDS011;59918;51.280;7.950;2023-05-19T07:10:47;9.75;;;2.20;;
72053;SDS011;59918;51.280;7.950;2023-05-19T07:13:18;4.55;;;1.75;;
72053;SDS011;59918;51.280;7.950;2023-05-19T07:15:43;5.78;;;1.90;;
72053;SDS011;59918;51.280;7.950;2023-05-19T07:18:08;4.72;;;1.90;;
72053;SDS011;59918;51.280;7.950;2023-05-19T07:20:34;2.53;;;1.83;;
72053;SDS011;59918;51.280;7.950;2023-05-19T07:22:59;4.55;;;2.17;;
72053;SDS011;59918;51.280;7.950;2023-05-19T07:25:27;5.35;;;2.13;;
72053;SDS011;59918;51.280;7.950;2023-05-19T07:27:52;8.77;;;2.28;;
72053;SDS011;59918;51.280;7.950;2023-05-19T07:30:18;4.60;;;1.55;;
72053;SDS011;59918;51.280;7.950;2023-05-19T07:32:43;2.78;;;1.73;;
72053;SDS011;59918;51.280;7.950;2023-05-19T07:35:08;4.18;;;1.65;;
72053;SDS011;59918;51.280;7.950;2023-05-19T07:37:33;3.85;;;1.70;;
72053;SDS011;59918;51.280;7.950;2023-05-19T07:39:58;4.55;;;2.13;;
72053;SDS011;59918;51.280;7.950;2023-05-19T07:42:24;5.43;;;1.50;;
72053;SDS011;59918;51.280;7.950;2023-05-19T07:44:55;7.43;;;1.77;;
72053;SDS011;59918;51.280;7.950;2023-05-19T07:47:20;4.57;;;1.60;;
72053;SDS011;59918;51.280;7.950;2023-05-19T07:49:48;6.30;;;1.70;;
72053;SDS011;59918;51.280;7.950;2023-05-19T07:52:16;8.93;;;2.55;;
72053;SDS011;59918;51.280;7.950;2023-05-19T07:54:41;2.15;;;1.63;;
72053;SDS011;59918;51.280;7.950;2023-05-19T07:57:06;4.63;;;1.60;;
72053;SDS011;59918;51.280;7.950;2023-05-19T07:59:31;4.75;;;2.53;;
72053;SDS011;59918;51.280;7.950;2023-05-19T08:01:57;7.45;;;2.33;;
72053;SDS011;59918;51.280;7.950;2023-05-19T08:04:22;4.65;;;1.80;;
72053;SDS011;59918;51.280;7.950;2023-05-19T08:06:47;4.03;;;1.98;;
72053;SDS011;59918;51.280;7.950;2023-05-19T08:09:18;7.03;;;1.60;;
72053;SDS011;59918;51.280;7.950;2023-05-19T08:11:44;5.53;;;1.83;;
72053;SDS011;59918;51.280;7.950;2023-05-19T08:14:09;3.00;;;1.50;;
72053;SDS011;59918;51.280;7.950;2023-05-19T08:16:34;7.22;;;1.80;;
72053;SDS011;59918;51.280;7.950;2023-05-19T08:19:00;2.83;;;1.52;;
72053;SDS011;59918;51.280;7.950;2023-05-19T08:21:31;8.55;;;1.55;;
72053;SDS011;59918;51.280;7.950;2023-05-19T08:23:56;6.18;;;1.65;;
72053;SDS011;59918;51.280;7.950;2023-05-19T08:26:21;5.05;;;1.40;;
72053;SDS011;59918;51.280;7.950;2023-05-19T08:28:46;6.00;;;1.90;;
72053;SDS011;59918;51.280;7.950;2023-05-19T08:31:12;7.25;;;1.75;;
72053;SDS011;59918;51.280;7.950;2023-05-19T08:33:53;5.78;;;1.48;;
72053;SDS011;59918;51.280;7.950;2023-05-19T08:36:18;4.60;;;1.58;;
72053;SDS011;59918;51.280;7.950;2023-05-19T08:38:44;4.63;;;1.85;;
72053;SDS011;59918;51.280;7.950;2023-05-19T08:41:09;6.18;;;1.90;;
72053;SDS011;59918;51.280;7.950;2023-05-19T08:43:34;5.20;;;1.50;;
72053;SDS011;59918;51.280;7.950;2023-05-19T08:46:03;3.08;;;1.85;;
72053;SDS011;59918;51.280;7.950;2023-05-19T08:48:29;5.07;;;1.80;;
72053;SDS011;59918;51.280;7.950;2023-05-19T08:53:49;5.43;;;2.05;;
72053;SDS011;59918;51.280;7.950;2023-05-19T08:56:20;5.95;;;1.95;;
72053;SDS011;59918;51.280;7.950;2023-05-19T08:58:48;7.85;;;1.88;;
72053;SDS011;59918;51.280;7.950;2023-05-19T09:01:17;4.57;;;1.73;;
72053;SDS011;59918;51.280;7.950;2023-05-19T09:03:44;6.32;;;1.55;;
72053;SDS011;59918;51.280;7.950;2023-05-19T09:06:11;1.77;;;1.23;;
72053;SDS011;59918;51.280;7.950;2023-05-19T09:08:40;4.45;;;1.40;;
72053;SDS011;59918;51.280;7.950;2023-05-19T09:11:06;3.70;;;1.73;;
72053;SDS011;59918;51.280;7.950;2023-05-19T09:13:32;3.55;;;1.40;;
72053;SDS011;59918;51.280;7.950;2023-05-19T09:15:58;4.65;;;1.80;;
72053;SDS011;59918;51.280;7.950;2023-05-19T09:18:29;4.90;;;1.60;;
72053;SDS011;59918;51.280;7.950;2023-05-19T09:20:58;8.40;;;1.45;;
72053;SDS011;59918;51.280;7.950;2023-05-19T09:23:29;4.70;;;1.50;;
72053;SDS011;59918;51.280;7.950;2023-05-19T09:25:55;6.35;;;1.50;;
72053;SDS011;59918;51.280;7.950;2023-05-19T09:28:30;4.43;;;2.03;;
72053;SDS011;59918;51.280;7.950;2023-05-19T09:31:06;4.40;;;1.58;;
72053;SDS011;59918;51.280;7.950;2023-05-19T09:33:33;2.55;;;1.38;;
72053;SDS011;59918;51.280;7.950;2023-05-19T09:36:08;2.95;;;1.20;;
72053;SDS011;59918;51.280;7.950;2023-05-19T09:38:34;11.55;;;1.73;;
72053;SDS011;59918;51.280;7.950;2023-05-19T09:41:04;7.85;;;1.92;;
72053;SDS011;59918;51.280;7.950;2023-05-19T09:43:30;4.20;;;1.70;;
72053;SDS011;59918;51.280;7.950;2023-05-19T09:46:04;4.75;;;1.45;;
72053;SDS011;59918;51.280;7.950;2023-05-19T09:48:33;8.77;;;1.50;;
72053;SDS011;59918;51.280;7.950;2023-05-19T09:53:33;2.45;;;1.55;;
72053;SDS011;59918;51.280;7.950;2023-05-19T09:55:59;5.00;;;1.45;;
72053;SDS011;59918;51.280;7.950;2023-05-19T09:58:32;3.30;;;1.10;;
72053;SDS011;59918;51.280;7.950;2023-05-19T10:00:58;6.00;;;1.60;;
72053;SDS011;59918;51.280;7.950;2023-05-19T10:03:28;4.95;;;1.58;;
72053;SDS011;59918;51.280;7.950;2023-05-19T10:05:54;5.13;;;1.45;;
72053;SDS011;59918;51.280;7.950;2023-05-19T10:08:19;2.35;;;1.38;;
72053;SDS011;59918;51.280;7.950;2023-05-19T10:10:46;4.35;;;1.75;;
72053;SDS011;59918;51.280;7.950;2023-05-19T10:13:14;3.42;;;1.20;;
72053;SDS011;59918;51.280;7.950;2023-05-19T10:15:43;4.53;;;1.55;;
72053;SDS011;59918;51.280;7.950;2023-05-19T10:18:11;3.38;;;1.58;;
72053;SDS011;59918;51.280;7.950;2023-05-19T10:20:45;4.22;;;1.20;;
72053;SDS011;59918;51.280;7.950;2023-05-19T10:23:15;3.15;;;1.85;;
72053;SDS011;59918;51.280;7.950;2023-05-19T10:25:40;2.67;;;1.20;;
72053;SDS011;59918;51.280;7.950;2023-05-19T10:28:16;4.13;;;1.33;;
72053;SDS011;59918;51.280;7.950;2023-05-19T10:30:44;3.45;;;1.77;;
72053;SDS011;59918;51.280;7.950;2023-05-19T10:33:15;3.38;;;1.30;;
72053;SDS011;59918;51.280;7.950;2023-05-19T10:46:39;2.83;;;1.53;;
72053;SDS011;59918;51.280;7.950;2023-05-19T10:49:06;3.10;;;1.50;;
72053;SDS011;59918;51.280;7.950;2023-05-19T10:51:32;4.65;;;1.13;;
72053;SDS011;59918;51.280;7.950;2023-05-19T10:54:00;3.55;;;1.27;;
72053;SDS011;59918;51.280;7.950;2023-05-19T10:56:37;1.77;;;1.10;;
72053;SDS011;59918;51.280;7.950;2023-05-19T10:59:30;2.22;;;1.33;;
72053;SDS011;59918;51.280;7.950;2023-05-19T11:02:03;2.45;;;1.20;;
72053;SDS011;59918;51.280;7.950;2023-05-19T11:04:48;3.58;;;1.00;;
72053;SDS011;59918;51.280;7.950;2023-05-19T11:07:15;4.50;;;1.20;;
72053;SDS011;59918;51.280;7.950;2023-05-19T11:09:41;2.05;;;1.23;;
72053;SDS011;59918;51.280;7.950;2023-05-19T11:12:07;2.30;;;1.10;;
72053;SDS011;59918;51.280;7.950;2023-05-19T11:14:35;2.50;;;1.33;;
72053;SDS011;59918;51.280;7.950;2023-05-19T11:17:00;4.88;;;1.25;;
72053;SDS011;59918;51.280;7.950;2023-05-19T11:19:26;3.90;;;1.30;;
72053;SDS011;59918;51.280;7.950;2023-05-19T11:21:52;4.45;;;1.52;;
72053;SDS011;59918;51.280;7.950;2023-05-19T11:32:29;3.67;;;1.45;;
72053;SDS011;59918;51.280;7.950;2023-05-19T11:35:00;2.67;;;1.40;;
72053;SDS011;59918;51.280;7.950;2023-05-19T11:37:26;2.97;;;1.40;;
72053;SDS011;59918;51.280;7.950;2023-05-19T11:39:52;3.03;;;1.27;;
72053;SDS011;59918;51.280;7.950;2023-05-19T11:42:17;2.53;;;1.38;;
72053;SDS011;59918;51.280;7.950;2023-05-19T11:44:43;2.47;;;1.10;;
72053;SDS011;59918;51.280;7.950;2023-05-19T11:47:15;2.33;;;1.20;;
72053;SDS011;59918;51.280;7.950;2023-05-19T11:49:44;5.78;;;1.10;;
72053;SDS011;59918;51.280;7.950;2023-05-19T11:52:12;3.95;;;1.38;;
72053;SDS011;59918;51.280;7.950;2023-05-19T11:54:38;2.03;;;1.00;;
72053;SDS011;59918;51.280;7.950;2023-05-19T11:57:03;4.22;;;1.27;;
72053;SDS011;59918;51.280;7.950;2023-05-19T11:59:29;3.83;;;1.65;;
72053;SDS011;59918;51.280;7.950;2023-05-19T12:01:55;1.27;;;0.98;;
72053;SDS011;59918;51.280;7.950;2023-05-19T12:04:26;3.53;;;1.60;;
72053;SDS011;59918;51.280;7.950;2023-05-19T12:06:52;2.35;;;1.00;;
72053;SDS011;59918;51.280;7.950;2023-05-19T12:09:18;1.33;;;1.15;;
72053;SDS011;59918;51.280;7.950;2023-05-19T12:11:52;2.55;;;1.00;;
72053;SDS011;59918;51.280;7.950;2023-05-19T12:14:18;1.20;;;1.05;;
72053;SDS011;59918;51.280;7.950;2023-05-19T12:16:44;2.28;;;1.17;;
72053;SDS011;59918;51.280;7.950;2023-05-19T12:19:15;2.92;;;0.90;;
72053;SDS011;59918;51.280;7.950;2023-05-19T12:21:40;2.15;;;1.48;;
72053;SDS011;59918;51.280;7.950;2023-05-19T12:24:05;10.80;;;1.40;;
72053;SDS011;59918;51.280;7.950;2023-05-19T12:26:31;2.95;;;1.08;;
72053;SDS011;59918;51.280;7.950;2023-05-19T12:29:03;3.40;;;1.20;;
72053;SDS011;59918;51.280;7.950;2023-05-19T12:31:29;2.17;;;1.30;;
72053;SDS011;59918;51.280;7.950;2023-05-19T12:33:55;1.70;;;1.30;;
72053;SDS011;59918;51.280;7.950;2023-05-19T12:36:20;1.38;;;1.00;;
72053;SDS011;59918;51.280;7.950;2023-05-19T12:38:56;2.47;;;1.52;;
72053;SDS011;59918;51.280;7.950;2023-05-19T12:41:27;1.67;;;1.17;;
72053;SDS011;59918;51.280;7.950;2023-05-19T12:43:53;1.30;;;1.13;;
72053;SDS011;59918;51.280;7.950;2023-05-19T12:46:19;5.40;;;1.30;;
72053;SDS011;59918;51.280;7.950;2023-05-19T12:48:45;5.72;;;1.58;;
72053;SDS011;59918;51.280;7.950;2023-05-19T12:51:17;2.83;;;1.20;;
72053;SDS011;59918;51.280;7.950;2023-05-19T12:53:43;8.80;;;2.47;;
72053;SDS011;59918;51.280;7.950;2023-05-19T12:56:14;2.55;;;1.30;;
72053;SDS011;59918;51.280;7.950;2023-05-19T13:01:05;1.88;;;1.05;;
72053;SDS011;59918;51.280;7.950;2023-05-19T13:03:31;1.67;;;1.10;;
72053;SDS011;59918;51.280;7.950;2023-05-19T13:05:56;5.37;;;1.87;;
72053;SDS011;59918;51.280;7.950;2023-05-19T13:08:25;5.87;;;1.50;;
72053;SDS011;59918;51.280;7.950;2023-05-19T13:10:50;2.65;;;1.40;;
72053;SDS011;59918;51.280;7.950;2023-05-19T13:13:15;6.00;;;2.38;;
72053;SDS011;59918;51.280;7.950;2023-05-19T13:15:41;1.80;;;1.30;;
72053;SDS011;59918;51.280;7.950;2023-05-19T13:18:08;1.92;;;1.50;;
72053;SDS011;59918;51.280;7.950;2023-05-19T13:20:37;3.70;;;1.40;;
72053;SDS011;59918;51.280;7.950;2023-05-19T13:23:03;2.58;;;1.52;;
72053;SDS011;59918;51.280;7.950;2023-05-19T13:25:29;2.38;;;1.40;;
72053;SDS011;59918;51.280;7.950;2023-05-19T13:27:54;2.38;;;1.20;;
72053;SDS011;59918;51.280;7.950;2023-05-19T13:30:20;1.35;;;0.93;;
72053;SDS011;59918;51.280;7.950;2023-05-19T13:32:49;3.70;;;1.30;;
72053;SDS011;59918;51.280;7.950;2023-05-19T13:35:14;1.50;;;1.10;;
72053;SDS011;59918;51.280;7.950;2023-05-19T13:37:42;1.10;;;1.00;;
72053;SDS011;59918;51.280;7.950;2023-05-19T13:40:08;3.75;;;1.50;;
72053;SDS011;59918;51.280;7.950;2023-05-19T13:42:39;3.20;;;1.30;;
72053;SDS011;59918;51.280;7.950;2023-05-19T13:45:05;2.58;;;1.00;;
72053;SDS011;59918;51.280;7.950;2023-05-19T13:47:30;1.65;;;1.10;;
72053;SDS011;59918;51.280;7.950;2023-05-19T13:49:56;5.53;;;1.50;;
72053;SDS011;59918;51.280;7.950;2023-05-19T13:52:27;3.47;;;1.40;;
72053;SDS011;59918;51.280;7.950;2023-05-19T13:54:52;1.50;;;1.35;;
72053;SDS011;59918;51.280;7.950;2023-05-19T13:57:17;4.50;;;1.60;;
72053;SDS011;59918;51.280;7.950;2023-05-19T13:59:43;2.00;;;1.10;;
72053;SDS011;59918;51.280;7.950;2023-05-19T14:02:08;4.20;;;1.30;;
72053;SDS011;59918;51.280;7.950;2023-05-19T14:04:36;3.15;;;0.98;;
72053;SDS011;59918;51.280;7.950;2023-05-19T14:07:02;2.10;;;1.20;;
72053;SDS011;59918;51.280;7.950;2023-05-19T14:09:28;3.65;;;1.27;;
72053;SDS011;59918;51.280;7.950;2023-05-19T14:11:53;2.57;;;1.40;;
72053;SDS011;59918;51.280;7.950;2023-05-19T14:14:18;2.33;;;1.50;;
72053;SDS011;59918;51.280;7.950;2023-05-19T14:16:44;2.20;;;1.20;;
72053;SDS011;59918;51.280;7.950;2023-05-19T14:19:12;1.30;;;0.90;;
72053;SDS011;59918;51.280;7.950;2023-05-19T14:21:38;7.20;;;1.17;;
72053;SDS011;59918;51.280;7.950;2023-05-19T14:24:03;1.27;;;1.00;;
72053;SDS011;59918;51.280;7.950;2023-05-19T14:26:28;2.33;;;1.30;;
72053;SDS011;59918;51.280;7.950;2023-05-19T14:28:53;4.07;;;1.40;;
72053;SDS011;59918;51.280;7.950;2023-05-19T14:31:19;1.33;;;1.07;;
72053;SDS011;59918;51.280;7.950;2023-05-19T14:33:44;1.20;;;1.10;;
72053;SDS011;59918;51.280;7.950;2023-05-19T14:36:12;1.30;;;1.20;;
72053;SDS011;59918;51.280;7.950;2023-05-19T14:38:37;1.33;;;1.17;;
72053;SDS011;59918;51.280;7.950;2023-05-19T14:41:02;3.03;;;1.20;;
72053;SDS011;59918;51.280;7.950;2023-05-19T14:43:28;1.35;;;1.17;;
72053;SDS011;59918;51.280;7.950;2023-05-19T14:45:53;1.95;;;1.05;;
72053;SDS011;59918;51.280;7.950;2023-05-19T14:48:18;1.40;;;1.02;;
72053;SDS011;59918;51.280;7.950;2023-05-19T14:50:45;1.98;;;1.20;;
72053;SDS011;59918;51.280;7.950;2023-05-19T14:53:13;1.27;;;0.85;;
72053;SDS011;59918;51.280;7.950;2023-05-19T14:55:39;2.63;;;1.20;;
72053;SDS011;59918;51.280;7.950;2023-05-19T14:58:04;7.27;;;1.60;;
72053;SDS011;59918;51.280;7.950;2023-05-19T15:00:29;1.37;;;1.20;;
72053;SDS011;59918;51.280;7.950;2023-05-19T15:02:55;1.20;;;1.10;;
72053;SDS011;59918;51.280;7.950;2023-05-19T15:05:20;3.08;;;1.10;;
72053;SDS011;59918;51.280;7.950;2023-05-19T15:07:49;2.95;;;1.10;;
72053;SDS011;59918;51.280;7.950;2023-05-19T15:10:14;2.03;;;1.10;;
72053;SDS011;59918;51.280;7.950;2023-05-19T15:12:40;1.70;;;1.23;;
72053;SDS011;59918;51.280;7.950;2023-05-19T15:15:06;1.50;;;1.27;;
72053;SDS011;59918;51.280;7.950;2023-05-19T15:17:32;2.22;;;1.10;;
72053;SDS011;59918;51.280;7.950;2023-05-19T15:19:57;3.63;;;1.10;;
72053;SDS011;59918;51.280;7.950;2023-05-19T15:22:28;3.28;;;1.25;;
72053;SDS011;59918;51.280;7.950;2023-05-19T15:24:54;2.17;;;1.27;;